sensor_id;sensor_type;location;lat;lon;timestamp;temperature;humidity
27506;DHT22;14939;43.596;1.320;2023-11-21T00:01:54;10.20;99.90
27506;DHT22;14939;43.596;1.320;2023-11-21T00:04:20;10.20;99.90
27506;DHT22;14939;43.596;1.320;2023-11-21T00:06:46;10.20;99.90
27506;DHT22;14939;43.596;1.320;2023-11-21T00:09:13;10.20;99.90
27506;DHT22;14939;43.596;1.320;2023-11-21T00:11:41;10.20;99.90
27506;DHT22;14939;43.596;1.320;2023-11-21T00:14:06;10.20;99.90
27506;DHT22;14939;43.596;1.320;2023-11-21T00:16:33;10.20;99.90
27506;DHT22;14939;43.596;1.320;2023-11-21T00:18:59;10.20;99.90
27506;DHT22;14939;43.596;1.320;2023-11-21T00:21:25;10.20;99.90
27506;DHT22;14939;43.596;1.320;2023-11-21T00:23:51;10.30;99.90
27506;DHT22;14939;43.596;1.320;2023-11-21T00:26:16;10.20;99.90
27506;DHT22;14939;43.596;1.320;2023-11-21T00:28:42;10.20;99.90
27506;DHT22;14939;43.596;1.320;2023-11-21T00:31:08;10.20;99.90
27506;DHT22;14939;43.596;1.320;2023-11-21T00:33:33;10.20;99.90
27506;DHT22;14939;43.596;1.320;2023-11-21T00:35:59;10.20;99.90
27506;DHT22;14939;43.596;1.320;2023-11-21T00:38:26;10.20;99.90
27506;DHT22;14939;43.596;1.320;2023-11-21T00:40:53;10.10;99.90
27506;DHT22;14939;43.596;1.320;2023-11-21T00:43:24;10.10;99.90
27506;DHT22;14939;43.596;1.320;2023-11-21T00:45:50;10.10;99.90
27506;DHT22;14939;43.596;1.320;2023-11-21T00:48:16;10.10;99.90
27506;DHT22;14939;43.596;1.320;2023-11-21T00:50:43;10.20;99.90
27506;DHT22;14939;43.596;1.320;2023-11-21T00:53:09;10.20;99.90
27506;DHT22;14939;43.596;1.320;2023-11-21T00:55:35;10.30;99.90
27506;DHT22;14939;43.596;1.320;2023-11-21T00:58:00;10.30;99.90
27506;DHT22;14939;43.596;1.320;2023-11-21T01:00:29;10.30;99.90
27506;DHT22;14939;43.596;1.320;2023-11-21T01:02:55;10.30;99.90
27506;DHT22;14939;43.596;1.320;2023-11-21T01:05:21;10.30;99.90
27506;DHT22;14939;43.596;1.320;2023-11-21T01:07:46;10.30;99.90
27506;DHT22;14939;43.596;1.320;2023-11-21T01:10:12;10.30;99.90
27506;DHT22;14939;43.596;1.320;2023-11-21T01:12:38;10.30;99.90
27506;DHT22;14939;43.596;1.320;2023-11-21T01:15:07;10.30;99.90
27506;DHT22;14939;43.596;1.320;2023-11-21T01:17:33;10.30;99.90
27506;DHT22;14939;43.596;1.320;2023-11-21T01:20:02;10.30;99.90
27506;DHT22;14939;43.596;1.320;2023-11-21T01:22:31;10.30;99.90
27506;DHT22;14939;43.596;1.320;2023-11-21T01:24:57;10.30;99.90
27506;DHT22;14939;43.596;1.320;2023-11-21T01:27:23;10.30;99.90
27506;DHT22;14939;43.596;1.320;2023-11-21T01:29:48;10.30;99.90
27506;DHT22;14939;43.596;1.320;2023-11-21T01:32:14;10.20;99.90
27506;DHT22;14939;43.596;1.320;2023-11-21T01:34:40;10.20;99.90
27506;DHT22;14939;43.596;1.320;2023-11-21T01:37:05;10.20;99.90
27506;DHT22;14939;43.596;1.320;2023-11-21T01:39:31;10.30;99.90
27506;DHT22;14939;43.596;1.320;2023-11-21T01:41:57;10.30;99.90
27506;DHT22;14939;43.596;1.320;2023-11-21T01:44:25;10.30;99.90
27506;DHT22;14939;43.596;1.320;2023-11-21T01:46:51;10.30;99.90
27506;DHT22;14939;43.596;1.320;2023-11-21T01:49:17;10.30;99.90
27506;DHT22;14939;43.596;1.320;2023-11-21T01:51:48;10.20;99.90
27506;DHT22;14939;43.596;1.320;2023-11-21T01:54:16;10.10;99.90
27506;DHT22;14939;43.596;1.320;2023-11-21T01:56:44;10.00;99.90
27506;DHT22;14939;43.596;1.320;2023-11-21T01:59:11;10.00;99.90
27506;DHT22;14939;43.596;1.320;2023-11-21T02:01:37;10.00;99.90
27506;DHT22;14939;43.596;1.320;2023-11-21T02:04:03;10.00;99.90
27506;DHT22;14939;43.596;1.320;2023-11-21T02:06:28;10.00;99.90
27506;DHT22;14939;43.596;1.320;2023-11-21T02:08:56;10.00;99.90
27506;DHT22;14939;43.596;1.320;2023-11-21T02:11:22;10.00;99.90
27506;DHT22;14939;43.596;1.320;2023-11-21T02:13:47;10.00;99.90
27506;DHT22;14939;43.596;1.320;2023-11-21T02:16:15;10.00;99.90
27506;DHT22;14939;43.596;1.320;2023-11-21T02:18:41;10.00;99.90
27506;DHT22;14939;43.596;1.320;2023-11-21T02:21:07;10.00;99.90
27506;DHT22;14939;43.596;1.320;2023-11-21T02:23:33;10.00;99.90
27506;DHT22;14939;43.596;1.320;2023-11-21T02:25:59;10.00;99.90
27506;DHT22;14939;43.596;1.320;2023-11-21T02:28:29;9.90;99.90
27506;DHT22;14939;43.596;1.320;2023-11-21T02:30:55;9.90;99.90
27506;DHT22;14939;43.596;1.320;2023-11-21T02:33:22;9.90;99.90
27506;DHT22;14939;43.596;1.320;2023-11-21T02:35:48;9.90;99.90
27506;DHT22;14939;43.596;1.320;2023-11-21T02:38:13;9.90;99.90
27506;DHT22;14939;43.596;1.320;2023-11-21T02:40:41;9.90;99.90
27506;DHT22;14939;43.596;1.320;2023-11-21T02:43:07;9.90;99.90
27506;DHT22;14939;43.596;1.320;2023-11-21T02:45:32;9.80;99.90
27506;DHT22;14939;43.596;1.320;2023-11-21T02:47:58;9.80;99.90
27506;DHT22;14939;43.596;1.320;2023-11-21T02:50:24;9.80;99.90
27506;DHT22;14939;43.596;1.320;2023-11-21T02:52:50;9.70;99.90
27506;DHT22;14939;43.596;1.320;2023-11-21T02:55:16;9.70;99.90
27506;DHT22;14939;43.596;1.320;2023-11-21T02:57:42;9.60;99.90
27506;DHT22;14939;43.596;1.320;2023-11-21T03:00:08;9.60;99.90
27506;DHT22;14939;43.596;1.320;2023-11-21T03:02:35;9.70;99.90
27506;DHT22;14939;43.596;1.320;2023-11-21T03:05:05;9.70;99.90
27506;DHT22;14939;43.596;1.320;2023-11-21T03:07:31;9.70;99.90
27506;DHT22;14939;43.596;1.320;2023-11-21T03:09:57;9.60;99.90
27506;DHT22;14939;43.596;1.320;2023-11-21T03:12:23;9.50;99.90
27506;DHT22;14939;43.596;1.320;2023-11-21T03:14:48;9.50;99.90
27506;DHT22;14939;43.596;1.320;2023-11-21T03:17:14;9.50;99.90
27506;DHT22;14939;43.596;1.320;2023-11-21T03:19:41;9.50;99.90
27506;DHT22;14939;43.596;1.320;2023-11-21T03:22:07;9.40;99.90
27506;DHT22;14939;43.596;1.320;2023-11-21T03:24:34;9.30;99.90
27506;DHT22;14939;43.596;1.320;2023-11-21T03:27:00;9.40;99.90
27506;DHT22;14939;43.596;1.320;2023-11-21T03:29:25;9.30;99.90
27506;DHT22;14939;43.596;1.320;2023-11-21T03:31:51;9.30;99.90
27506;DHT22;14939;43.596;1.320;2023-11-21T03:34:26;9.30;99.90
27506;DHT22;14939;43.596;1.320;2023-11-21T03:36:52;9.20;99.90
27506;DHT22;14939;43.596;1.320;2023-11-21T03:39:19;9.20;99.90
27506;DHT22;14939;43.596;1.320;2023-11-21T03:41:45;9.20;99.90
27506;DHT22;14939;43.596;1.320;2023-11-21T03:44:10;9.10;99.90
27506;DHT22;14939;43.596;1.320;2023-11-21T03:46:36;9.10;99.90
27506;DHT22;14939;43.596;1.320;2023-11-21T03:49:02;9.10;99.90
27506;DHT22;14939;43.596;1.320;2023-11-21T03:51:27;9.10;99.90
27506;DHT22;14939;43.596;1.320;2023-11-21T03:53:53;9.10;99.90
27506;DHT22;14939;43.596;1.320;2023-11-21T03:56:19;9.10;99.90
27506;DHT22;14939;43.596;1.320;2023-11-21T03:58:47;9.30;99.90
27506;DHT22;14939;43.596;1.320;2023-11-21T04:01:22;9.30;99.90
27506;DHT22;14939;43.596;1.320;2023-11-21T04:03:48;9.20;99.90
27506;DHT22;14939;43.596;1.320;2023-11-21T04:06:14;9.10;99.90
27506;DHT22;14939;43.596;1.320;2023-11-21T04:08:40;9.10;99.90
27506;DHT22;14939;43.596;1.320;2023-11-21T04:11:05;9.00;99.90
27506;DHT22;14939;43.596;1.320;2023-11-21T04:13:31;9.00;99.90
27506;DHT22;14939;43.596;1.320;2023-11-21T04:15:56;9.00;99.90
27506;DHT22;14939;43.596;1.320;2023-11-21T04:18:22;9.00;99.90
27506;DHT22;14939;43.596;1.320;2023-11-21T04:20:51;8.90;99.90
27506;DHT22;14939;43.596;1.320;2023-11-21T04:23:16;8.90;99.90
27506;DHT22;14939;43.596;1.320;2023-11-21T04:25:42;8.90;99.90
27506;DHT22;14939;43.596;1.320;2023-11-21T04:28:08;8.90;99.90
27506;DHT22;14939;43.596;1.320;2023-11-21T04:30:34;8.90;99.90
27506;DHT22;14939;43.596;1.320;2023-11-21T04:32:59;9.00;99.90
27506;DHT22;14939;43.596;1.320;2023-11-21T04:35:25;9.10;99.90
27506;DHT22;14939;43.596;1.320;2023-11-21T04:37:50;9.10;99.90
27506;DHT22;14939;43.596;1.320;2023-11-21T04:40:16;9.10;99.90
27506;DHT22;14939;43.596;1.320;2023-11-21T04:42:42;9.10;99.90
27506;DHT22;14939;43.596;1.320;2023-11-21T04:45:08;9.10;99.90
27506;DHT22;14939;43.596;1.320;2023-11-21T04:47:35;9.10;99.90
27506;DHT22;14939;43.596;1.320;2023-11-21T04:50:02;9.20;99.90
27506;DHT22;14939;43.596;1.320;2023-11-21T04:52:28;9.30;99.90
27506;DHT22;14939;43.596;1.320;2023-11-21T04:54:54;9.40;99.90
27506;DHT22;14939;43.596;1.320;2023-11-21T04:57:20;9.40;99.90
27506;DHT22;14939;43.596;1.320;2023-11-21T04:59:48;9.50;99.90
27506;DHT22;14939;43.596;1.320;2023-11-21T05:02:14;9.50;99.90
27506;DHT22;14939;43.596;1.320;2023-11-21T05:04:39;9.60;99.90
27506;DHT22;14939;43.596;1.320;2023-11-21T05:07:05;9.70;99.90
27506;DHT22;14939;43.596;1.320;2023-11-21T05:09:31;9.60;99.90
27506;DHT22;14939;43.596;1.320;2023-11-21T05:11:58;9.60;99.90
27506;DHT22;14939;43.596;1.320;2023-11-21T05:14:23;9.60;99.90
27506;DHT22;14939;43.596;1.320;2023-11-21T05:16:49;9.70;99.90
27506;DHT22;14939;43.596;1.320;2023-11-21T05:19:16;9.70;99.90
27506;DHT22;14939;43.596;1.320;2023-11-21T05:21:42;9.70;99.90
27506;DHT22;14939;43.596;1.320;2023-11-21T05:24:07;9.70;99.90
27506;DHT22;14939;43.596;1.320;2023-11-21T05:26:33;9.70;99.90
27506;DHT22;14939;43.596;1.320;2023-11-21T05:28:58;9.70;99.90
27506;DHT22;14939;43.596;1.320;2023-11-21T05:31:24;9.70;99.90
27506;DHT22;14939;43.596;1.320;2023-11-21T05:33:50;9.80;99.90
27506;DHT22;14939;43.596;1.320;2023-11-21T05:36:15;9.80;99.90
27506;DHT22;14939;43.596;1.320;2023-11-21T05:38:41;9.80;99.90
27506;DHT22;14939;43.596;1.320;2023-11-21T05:41:07;9.70;99.90
27506;DHT22;14939;43.596;1.320;2023-11-21T05:43:33;9.80;99.90
27506;DHT22;14939;43.596;1.320;2023-11-21T05:46:01;9.80;99.90
27506;DHT22;14939;43.596;1.320;2023-11-21T05:48:26;9.80;99.90
27506;DHT22;14939;43.596;1.320;2023-11-21T05:50:52;9.90;99.90
27506;DHT22;14939;43.596;1.320;2023-11-21T05:53:18;9.90;99.90
27506;DHT22;14939;43.596;1.320;2023-11-21T05:55:44;9.90;99.90
27506;DHT22;14939;43.596;1.320;2023-11-21T05:58:09;9.90;99.90
27506;DHT22;14939;43.596;1.320;2023-11-21T06:00:35;9.70;99.90
27506;DHT22;14939;43.596;1.320;2023-11-21T06:03:01;9.60;99.90
27506;DHT22;14939;43.596;1.320;2023-11-21T06:05:27;9.50;99.90
27506;DHT22;14939;43.596;1.320;2023-11-21T06:07:54;9.50;99.90
27506;DHT22;14939;43.596;1.320;2023-11-21T06:10:21;9.50;99.90
27506;DHT22;14939;43.596;1.320;2023-11-21T06:12:46;9.50;99.90
27506;DHT22;14939;43.596;1.320;2023-11-21T06:15:12;9.50;99.90
27506;DHT22;14939;43.596;1.320;2023-11-21T06:17:42;9.50;99.90
27506;DHT22;14939;43.596;1.320;2023-11-21T06:20:09;9.50;99.90
27506;DHT22;14939;43.596;1.320;2023-11-21T06:22:40;9.50;99.90
27506;DHT22;14939;43.596;1.320;2023-11-21T06:25:07;9.50;99.90
27506;DHT22;14939;43.596;1.320;2023-11-21T06:27:34;9.50;99.90
27506;DHT22;14939;43.596;1.320;2023-11-21T06:30:00;9.60;99.90
27506;DHT22;14939;43.596;1.320;2023-11-21T06:32:25;9.60;99.90
27506;DHT22;14939;43.596;1.320;2023-11-21T06:34:51;9.60;99.90
27506;DHT22;14939;43.596;1.320;2023-11-21T06:37:20;9.60;99.90
27506;DHT22;14939;43.596;1.320;2023-11-21T06:39:48;9.60;99.90
27506;DHT22;14939;43.596;1.320;2023-11-21T06:42:14;9.60;99.90
27506;DHT22;14939;43.596;1.320;2023-11-21T06:44:40;9.70;99.90
27506;DHT22;14939;43.596;1.320;2023-11-21T06:47:07;9.60;99.90
27506;DHT22;14939;43.596;1.320;2023-11-21T06:49:32;9.70;99.90
27506;DHT22;14939;43.596;1.320;2023-11-21T06:51:58;9.70;99.90
27506;DHT22;14939;43.596;1.320;2023-11-21T06:54:26;9.70;99.90
27506;DHT22;14939;43.596;1.320;2023-11-21T06:56:52;9.70;99.90
27506;DHT22;14939;43.596;1.320;2023-11-21T06:59:18;9.60;99.90
27506;DHT22;14939;43.596;1.320;2023-11-21T07:01:44;9.60;99.90
27506;DHT22;14939;43.596;1.320;2023-11-21T07:04:10;9.60;99.90
27506;DHT22;14939;43.596;1.320;2023-11-21T07:06:35;9.60;99.90
27506;DHT22;14939;43.596;1.320;2023-11-21T07:09:01;9.70;99.90
27506;DHT22;14939;43.596;1.320;2023-11-21T07:11:28;9.70;99.90
27506;DHT22;14939;43.596;1.320;2023-11-21T07:13:54;9.70;99.90
27506;DHT22;14939;43.596;1.320;2023-11-21T07:16:20;9.70;99.90
27506;DHT22;14939;43.596;1.320;2023-11-21T07:18:46;9.80;99.90
27506;DHT22;14939;43.596;1.320;2023-11-21T07:21:11;9.80;99.90
27506;DHT22;14939;43.596;1.320;2023-11-21T07:23:38;9.80;99.90
27506;DHT22;14939;43.596;1.320;2023-11-21T07:26:04;9.80;99.90
27506;DHT22;14939;43.596;1.320;2023-11-21T07:28:34;9.80;99.90
27506;DHT22;14939;43.596;1.320;2023-11-21T07:31:01;9.80;99.90
27506;DHT22;14939;43.596;1.320;2023-11-21T07:33:27;9.80;99.90
27506;DHT22;14939;43.596;1.320;2023-11-21T07:35:52;9.80;99.90
27506;DHT22;14939;43.596;1.320;2023-11-21T07:38:18;9.80;99.90
27506;DHT22;14939;43.596;1.320;2023-11-21T07:40:44;9.80;99.90
27506;DHT22;14939;43.596;1.320;2023-11-21T07:43:09;9.90;99.90
27506;DHT22;14939;43.596;1.320;2023-11-21T07:45:36;9.90;99.90
27506;DHT22;14939;43.596;1.320;2023-11-21T07:48:02;9.90;99.90
27506;DHT22;14939;43.596;1.320;2023-11-21T07:50:29;9.90;99.90
27506;DHT22;14939;43.596;1.320;2023-11-21T07:52:55;9.90;99.90
27506;DHT22;14939;43.596;1.320;2023-11-21T07:55:20;9.90;99.90
27506;DHT22;14939;43.596;1.320;2023-11-21T07:57:46;9.90;99.90
27506;DHT22;14939;43.596;1.320;2023-11-21T08:00:12;10.00;99.90
27506;DHT22;14939;43.596;1.320;2023-11-21T08:02:40;10.00;99.90
27506;DHT22;14939;43.596;1.320;2023-11-21T08:05:12;10.00;99.90
27506;DHT22;14939;43.596;1.320;2023-11-21T08:07:38;10.00;99.90
27506;DHT22;14939;43.596;1.320;2023-11-21T08:10:04;10.00;99.90
27506;DHT22;14939;43.596;1.320;2023-11-21T08:12:32;10.00;99.90
27506;DHT22;14939;43.596;1.320;2023-11-21T08:14:59;10.10;99.90
27506;DHT22;14939;43.596;1.320;2023-11-21T08:17:24;10.00;99.90
27506;DHT22;14939;43.596;1.320;2023-11-21T08:19:50;10.10;99.90
27506;DHT22;14939;43.596;1.320;2023-11-21T08:22:16;10.20;99.90
27506;DHT22;14939;43.596;1.320;2023-11-21T08:24:43;10.20;99.90
27506;DHT22;14939;43.596;1.320;2023-11-21T08:27:09;10.20;99.90
27506;DHT22;14939;43.596;1.320;2023-11-21T08:29:35;10.30;99.90
27506;DHT22;14939;43.596;1.320;2023-11-21T08:32:02;10.40;99.90
27506;DHT22;14939;43.596;1.320;2023-11-21T08:34:28;10.40;99.90
27506;DHT22;14939;43.596;1.320;2023-11-21T08:36:54;10.40;99.90
27506;DHT22;14939;43.596;1.320;2023-11-21T08:39:21;10.40;99.90
27506;DHT22;14939;43.596;1.320;2023-11-21T08:41:50;10.40;99.90
27506;DHT22;14939;43.596;1.320;2023-11-21T08:44:16;10.40;99.90
27506;DHT22;14939;43.596;1.320;2023-11-21T08:46:43;10.50;99.90
27506;DHT22;14939;43.596;1.320;2023-11-21T08:49:11;10.60;99.90
27506;DHT22;14939;43.596;1.320;2023-11-21T08:51:37;10.60;99.90
27506;DHT22;14939;43.596;1.320;2023-11-21T08:54:04;10.60;99.90
27506;DHT22;14939;43.596;1.320;2023-11-21T08:56:33;10.70;99.90
27506;DHT22;14939;43.596;1.320;2023-11-21T08:58:59;10.60;99.90
27506;DHT22;14939;43.596;1.320;2023-11-21T09:01:31;10.70;99.90
27506;DHT22;14939;43.596;1.320;2023-11-21T09:03:57;10.60;99.90
27506;DHT22;14939;43.596;1.320;2023-11-21T09:06:23;10.70;99.90
27506;DHT22;14939;43.596;1.320;2023-11-21T09:08:50;10.70;99.90
27506;DHT22;14939;43.596;1.320;2023-11-21T09:11:16;10.70;99.90
27506;DHT22;14939;43.596;1.320;2023-11-21T09:13:42;10.70;99.90
27506;DHT22;14939;43.596;1.320;2023-11-21T09:16:08;10.70;99.90
27506;DHT22;14939;43.596;1.320;2023-11-21T09:18:33;10.70;99.90
27506;DHT22;14939;43.596;1.320;2023-11-21T09:20:59;10.60;99.90
27506;DHT22;14939;43.596;1.320;2023-11-21T09:23:25;10.60;99.90
27506;DHT22;14939;43.596;1.320;2023-11-21T09:25:50;10.70;99.90
27506;DHT22;14939;43.596;1.320;2023-11-21T09:28:17;10.70;99.90
27506;DHT22;14939;43.596;1.320;2023-11-21T09:30:43;10.70;99.90
27506;DHT22;14939;43.596;1.320;2023-11-21T09:33:09;10.70;99.90
27506;DHT22;14939;43.596;1.320;2023-11-21T09:35:38;10.70;99.90
27506;DHT22;14939;43.596;1.320;2023-11-21T09:38:04;10.80;99.90
27506;DHT22;14939;43.596;1.320;2023-11-21T09:40:36;10.80;99.90
27506;DHT22;14939;43.596;1.320;2023-11-21T09:43:08;10.90;99.90
27506;DHT22;14939;43.596;1.320;2023-11-21T09:45:35;11.00;99.90
27506;DHT22;14939;43.596;1.320;2023-11-21T09:48:01;11.00;99.90
27506;DHT22;14939;43.596;1.320;2023-11-21T09:50:28;11.10;99.90
27506;DHT22;14939;43.596;1.320;2023-11-21T09:52:55;11.20;99.90
27506;DHT22;14939;43.596;1.320;2023-11-21T09:55:27;11.30;99.90
27506;DHT22;14939;43.596;1.320;2023-11-21T09:57:56;11.30;99.90
27506;DHT22;14939;43.596;1.320;2023-11-21T10:00:22;11.30;99.90
27506;DHT22;14939;43.596;1.320;2023-11-21T10:02:49;11.20;99.90
27506;DHT22;14939;43.596;1.320;2023-11-21T10:05:16;11.10;99.90
27506;DHT22;14939;43.596;1.320;2023-11-21T10:07:46;11.10;99.90
27506;DHT22;14939;43.596;1.320;2023-11-21T10:10:13;11.10;99.90
27506;DHT22;14939;43.596;1.320;2023-11-21T10:12:43;11.00;99.90
27506;DHT22;14939;43.596;1.320;2023-11-21T10:15:13;10.90;99.90
27506;DHT22;14939;43.596;1.320;2023-11-21T10:17:43;11.00;99.90
27506;DHT22;14939;43.596;1.320;2023-11-21T10:20:14;10.90;99.90
27506;DHT22;14939;43.596;1.320;2023-11-21T10:22:43;10.90;99.90
27506;DHT22;14939;43.596;1.320;2023-11-21T10:25:12;11.00;99.90
27506;DHT22;14939;43.596;1.320;2023-11-21T10:27:40;11.00;99.90
27506;DHT22;14939;43.596;1.320;2023-11-21T10:30:10;11.10;99.90
27506;DHT22;14939;43.596;1.320;2023-11-21T10:32:39;11.10;99.90
27506;DHT22;14939;43.596;1.320;2023-11-21T10:35:06;11.20;99.90
27506;DHT22;14939;43.596;1.320;2023-11-21T10:37:32;11.10;99.90
27506;DHT22;14939;43.596;1.320;2023-11-21T10:40:01;11.10;99.90
27506;DHT22;14939;43.596;1.320;2023-11-21T10:42:27;11.20;99.90
27506;DHT22;14939;43.596;1.320;2023-11-21T10:44:54;11.20;99.90
27506;DHT22;14939;43.596;1.320;2023-11-21T10:47:20;11.10;99.90
27506;DHT22;14939;43.596;1.320;2023-11-21T10:49:51;11.10;99.90
27506;DHT22;14939;43.596;1.320;2023-11-21T10:52:19;11.00;99.90
27506;DHT22;14939;43.596;1.320;2023-11-21T10:54:46;11.10;99.90
27506;DHT22;14939;43.596;1.320;2023-11-21T10:57:16;11.20;99.90
27506;DHT22;14939;43.596;1.320;2023-11-21T10:59:46;11.30;99.90
27506;DHT22;14939;43.596;1.320;2023-11-21T11:02:24;11.20;99.90
27506;DHT22;14939;43.596;1.320;2023-11-21T11:04:58;11.20;99.90
27506;DHT22;14939;43.596;1.320;2023-11-21T11:07:27;11.30;99.90
27506;DHT22;14939;43.596;1.320;2023-11-21T11:09:55;11.30;99.90
27506;DHT22;14939;43.596;1.320;2023-11-21T11:12:21;11.40;99.90
27506;DHT22;14939;43.596;1.320;2023-11-21T11:14:48;11.40;99.90
27506;DHT22;14939;43.596;1.320;2023-11-21T11:17:14;11.50;99.90
27506;DHT22;14939;43.596;1.320;2023-11-21T11:19:40;11.40;99.90
27506;DHT22;14939;43.596;1.320;2023-11-21T11:36:22;11.50;99.90
27506;DHT22;14939;43.596;1.320;2023-11-21T11:38:49;11.60;99.90
27506;DHT22;14939;43.596;1.320;2023-11-21T11:41:25;11.60;99.90
27506;DHT22;14939;43.596;1.320;2023-11-21T11:43:52;11.70;99.90
27506;DHT22;14939;43.596;1.320;2023-11-21T11:46:18;11.80;99.90
27506;DHT22;14939;43.596;1.320;2023-11-21T11:48:48;11.80;99.90
27506;DHT22;14939;43.596;1.320;2023-11-21T11:51:15;11.80;99.90
27506;DHT22;14939;43.596;1.320;2023-11-21T11:53:43;11.90;99.90
27506;DHT22;14939;43.596;1.320;2023-11-21T11:56:23;12.00;99.90
27506;DHT22;14939;43.596;1.320;2023-11-21T11:58:52;12.00;99.90
27506;DHT22;14939;43.596;1.320;2023-11-21T12:01:19;12.10;99.90
27506;DHT22;14939;43.596;1.320;2023-11-21T12:06:36;12.00;99.90
27506;DHT22;14939;43.596;1.320;2023-11-21T12:09:03;12.00;99.90
27506;DHT22;14939;43.596;1.320;2023-11-21T12:11:32;12.00;99.90
27506;DHT22;14939;43.596;1.320;2023-11-21T12:13:58;12.00;99.90
27506;DHT22;14939;43.596;1.320;2023-11-21T12:16:25;12.00;99.90
27506;DHT22;14939;43.596;1.320;2023-11-21T12:18:53;11.90;99.90
27506;DHT22;14939;43.596;1.320;2023-11-21T12:21:19;11.40;99.90
27506;DHT22;14939;43.596;1.320;2023-11-21T12:23:45;11.10;99.90
27506;DHT22;14939;43.596;1.320;2023-11-21T12:26:13;10.90;99.90
27506;DHT22;14939;43.596;1.320;2023-11-21T12:28:39;10.90;99.90
27506;DHT22;14939;43.596;1.320;2023-11-21T12:31:05;10.90;99.90
27506;DHT22;14939;43.596;1.320;2023-11-21T12:33:35;11.00;99.90
27506;DHT22;14939;43.596;1.320;2023-11-21T12:36:01;11.00;99.90
27506;DHT22;14939;43.596;1.320;2023-11-21T12:38:34;10.90;99.90
27506;DHT22;14939;43.596;1.320;2023-11-21T12:41:03;10.90;99.90
27506;DHT22;14939;43.596;1.320;2023-11-21T12:43:29;11.00;99.90
27506;DHT22;14939;43.596;1.320;2023-11-21T12:46:08;11.10;99.90
27506;DHT22;14939;43.596;1.320;2023-11-21T12:48:38;11.10;99.90
27506;DHT22;14939;43.596;1.320;2023-11-21T12:51:10;11.20;99.90
27506;DHT22;14939;43.596;1.320;2023-11-21T12:53:42;11.30;99.90
27506;DHT22;14939;43.596;1.320;2023-11-21T12:56:10;11.30;99.90
27506;DHT22;14939;43.596;1.320;2023-11-21T12:58:40;11.30;99.90
27506;DHT22;14939;43.596;1.320;2023-11-21T13:01:10;11.30;99.90
27506;DHT22;14939;43.596;1.320;2023-11-21T13:03:40;11.20;99.90
27506;DHT22;14939;43.596;1.320;2023-11-21T13:06:07;11.30;99.90
27506;DHT22;14939;43.596;1.320;2023-11-21T13:08:36;11.20;99.90
27506;DHT22;14939;43.596;1.320;2023-11-21T13:11:05;11.20;99.90
27506;DHT22;14939;43.596;1.320;2023-11-21T13:13:31;11.10;99.90
27506;DHT22;14939;43.596;1.320;2023-11-21T13:16:00;11.20;99.90
27506;DHT22;14939;43.596;1.320;2023-11-21T13:18:29;11.10;99.90
27506;DHT22;14939;43.596;1.320;2023-11-21T13:21:00;11.20;99.90
27506;DHT22;14939;43.596;1.320;2023-11-21T13:23:27;11.40;99.90
27506;DHT22;14939;43.596;1.320;2023-11-21T13:25:55;11.30;99.90
27506;DHT22;14939;43.596;1.320;2023-11-21T13:28:21;11.40;99.90
27506;DHT22;14939;43.596;1.320;2023-11-21T13:30:49;11.50;99.90
27506;DHT22;14939;43.596;1.320;2023-11-21T13:33:17;11.50;99.90
27506;DHT22;14939;43.596;1.320;2023-11-21T13:35:47;11.60;99.90
27506;DHT22;14939;43.596;1.320;2023-11-21T13:38:15;11.70;99.90
27506;DHT22;14939;43.596;1.320;2023-11-21T13:40:52;11.80;99.90
27506;DHT22;14939;43.596;1.320;2023-11-21T13:43:22;11.70;99.90
27506;DHT22;14939;43.596;1.320;2023-11-21T13:45:50;11.70;99.90
27506;DHT22;14939;43.596;1.320;2023-11-21T13:48:24;11.80;99.90
27506;DHT22;14939;43.596;1.320;2023-11-21T13:51:12;11.80;99.90
27506;DHT22;14939;43.596;1.320;2023-11-21T13:53:46;11.90;99.90
27506;DHT22;14939;43.596;1.320;2023-11-21T13:56:14;11.80;99.90
27506;DHT22;14939;43.596;1.320;2023-11-21T13:58:45;11.80;99.90
27506;DHT22;14939;43.596;1.320;2023-11-21T14:01:16;12.00;99.90
27506;DHT22;14939;43.596;1.320;2023-11-21T14:04:00;11.90;99.90
27506;DHT22;14939;43.596;1.320;2023-11-21T14:06:43;12.00;99.90
27506;DHT22;14939;43.596;1.320;2023-11-21T14:09:18;12.10;99.90
27506;DHT22;14939;43.596;1.320;2023-11-21T14:12:01;12.00;99.90
27506;DHT22;14939;43.596;1.320;2023-11-21T14:14:31;12.00;99.90
27506;DHT22;14939;43.596;1.320;2023-11-21T14:16:57;12.00;99.90
27506;DHT22;14939;43.596;1.320;2023-11-21T14:19:24;12.00;99.90
27506;DHT22;14939;43.596;1.320;2023-11-21T14:21:55;12.00;99.90
27506;DHT22;14939;43.596;1.320;2023-11-21T14:24:21;12.00;99.90
27506;DHT22;14939;43.596;1.320;2023-11-21T14:26:49;12.10;99.90
27506;DHT22;14939;43.596;1.320;2023-11-21T14:29:18;12.00;99.90
27506;DHT22;14939;43.596;1.320;2023-11-21T14:31:48;11.90;99.90
27506;DHT22;14939;43.596;1.320;2023-11-21T14:34:17;11.90;99.90
27506;DHT22;14939;43.596;1.320;2023-11-21T14:36:43;11.80;99.90
27506;DHT22;14939;43.596;1.320;2023-11-21T14:39:10;11.80;99.90
27506;DHT22;14939;43.596;1.320;2023-11-21T14:41:48;12.00;99.90
27506;DHT22;14939;43.596;1.320;2023-11-21T14:44:14;12.10;99.90
27506;DHT22;14939;43.596;1.320;2023-11-21T14:46:40;12.00;99.90
27506;DHT22;14939;43.596;1.320;2023-11-21T14:49:14;12.10;99.90
27506;DHT22;14939;43.596;1.320;2023-11-21T14:51:53;12.20;99.90
27506;DHT22;14939;43.596;1.320;2023-11-21T14:54:34;12.20;99.90
27506;DHT22;14939;43.596;1.320;2023-11-21T14:57:07;12.30;99.90
27506;DHT22;14939;43.596;1.320;2023-11-21T14:59:37;12.20;99.90
27506;DHT22;14939;43.596;1.320;2023-11-21T15:02:02;12.20;99.90
27506;DHT22;14939;43.596;1.320;2023-11-21T15:04:43;12.20;99.90
27506;DHT22;14939;43.596;1.320;2023-11-21T15:07:10;12.20;99.90
27506;DHT22;14939;43.596;1.320;2023-11-21T15:09:38;12.20;99.90
27506;DHT22;14939;43.596;1.320;2023-11-21T15:12:09;12.10;99.90
27506;DHT22;14939;43.596;1.320;2023-11-21T15:14:48;12.20;99.90
27506;DHT22;14939;43.596;1.320;2023-11-21T15:17:17;12.10;99.90
27506;DHT22;14939;43.596;1.320;2023-11-21T15:19:55;12.10;99.90
27506;DHT22;14939;43.596;1.320;2023-11-21T15:22:21;12.10;99.90
27506;DHT22;14939;43.596;1.320;2023-11-21T15:24:47;12.10;99.90
27506;DHT22;14939;43.596;1.320;2023-11-21T15:27:15;12.00;99.90
27506;DHT22;14939;43.596;1.320;2023-11-21T15:29:41;12.00;99.90
27506;DHT22;14939;43.596;1.320;2023-11-21T15:32:08;12.00;99.90
27506;DHT22;14939;43.596;1.320;2023-11-21T15:34:34;12.00;99.90
27506;DHT22;14939;43.596;1.320;2023-11-21T15:37:00;11.90;99.90
27506;DHT22;14939;43.596;1.320;2023-11-21T15:39:26;11.90;99.90
27506;DHT22;14939;43.596;1.320;2023-11-21T15:41:59;11.90;99.90
27506;DHT22;14939;43.596;1.320;2023-11-21T15:44:25;11.70;99.90
27506;DHT22;14939;43.596;1.320;2023-11-21T15:46:53;11.80;99.90
27506;DHT22;14939;43.596;1.320;2023-11-21T15:49:18;11.60;99.90
27506;DHT22;14939;43.596;1.320;2023-11-21T15:51:47;11.40;99.90
27506;DHT22;14939;43.596;1.320;2023-11-21T15:54:19;11.30;99.90
27506;DHT22;14939;43.596;1.320;2023-11-21T15:56:46;11.10;99.90